Terminal Aerodrome Forecast
Issued by NWS Wilmington, OH

Current Version | Previous Version | Graphics & Text | Print | Product List | Glossary On
Versions: 1 2 3 4 5 6 7 8 9 10 11 12 13 14 15 16 17 18 19 20 21 22 23 24 25 26
232
FTUS41 KILN 282331
TAFCMH
TAF
KCMH 282331Z 2900/2924 22008KT P6SM BKN080
     FM290200 25010KT P6SM -SHRA BKN035
      TEMPO 2903/2905 4SM -TSRA OVC025CB
     FM290500 26009KT P6SM BKN045
     FM290800 25007KT P6SM SCT150
     FM291700 25013G20KT P6SM SCT250=

USA.gov is the U.S. government's official web portal to all federal, state and local government web resources and services.